Time;durP1;ratioP1;P1;durP2;ratioP2;P2;SDS_P1;SDS_P2;PMS_P1;PMS_P2;Temp;Humidity;BMP_temperature;BMP_pressure;BME280_temperature;BME280_humidity;BME280_pressure;Samples;Min_cycle;Max_cycle;Signal;HPM_P1;HPM_P2
2021/01/28 00:00:08;;;;;;;46.00;38.80;;;;;;;;;;5081890;28;20389;-71
2021/01/28 00:02:34;;;;;;;44.63;37.58;;;1.80;99.90;;;;;;5080327;28;20891;-73
2021/01/28 00:05:00;;;;;;;46.80;38.00;;;1.10;99.90;;;;;;5085247;28;20420;-71
2021/01/28 00:07:25;;;;;;;44.55;37.88;;;1.70;99.90;;;;;;5078995;28;20862;-71
2021/01/28 00:09:51;;;;;;;45.50;37.58;;;1.30;99.90;;;;;;5084076;28;20384;-71
2021/01/28 00:12:17;;;;;;;42.60;35.90;;;;;;;;;;5078134;28;20729;-72
2021/01/28 00:14:43;;;;;;;41.03;35.63;;;;;;;;;;5083461;28;20379;-72
2021/01/28 00:17:09;;;;;;;37.78;33.35;;;;;;;;;;5084101;28;20390;-72
2021/01/28 00:19:35;;;;;;;42.80;36.05;;;;;;;;;;5079698;28;20469;-72
2021/01/28 00:22:00;;;;;;;42.67;36.05;;;1.10;99.90;;;;;;5081181;28;20386;-72
2021/01/28 00:24:26;;;;;;;48.53;38.22;;;1.20;99.90;;;;;;5080574;28;20394;-71
2021/01/28 00:26:52;;;;;;;47.55;38.15;;;0.90;99.90;;;;;;5079945;28;20485;-71
2021/01/28 00:29:17;;;;;;;45.50;36.90;;;1.20;99.90;;;;;;5083423;28;20887;-71
2021/01/28 00:31:43;;;;;;;44.17;36.33;;;;;;;;;;5081118;28;20802;-72
2021/01/28 00:34:10;;;;;;;42.88;35.95;;;1.40;99.90;;;;;;5078944;28;20409;-72
2021/01/28 00:36:36;;;;;;;44.67;36.80;;;;;;;;;;5080054;28;20387;-71
2021/01/28 00:39:02;;;;;;;43.47;36.20;;;;;;;;;;5081306;28;20370;-72
2021/01/28 00:41:27;;;;;;;44.63;36.17;;;1.00;99.90;;;;;;5078847;28;20800;-73
2021/01/28 00:43:53;;;;;;;46.80;36.85;;;1.00;99.90;;;;;;5084435;28;20399;-73
2021/01/28 00:46:18;;;;;;;44.10;36.75;;;1.20;99.90;;;;;;5078074;28;20383;-73
2021/01/28 00:48:45;;;;;;;46.10;37.05;;;1.60;99.90;;;;;;5084437;28;20392;-72
2021/01/28 00:51:10;;;;;;;45.30;36.73;;;1.30;99.90;;;;;;5077706;28;20407;-72
2021/01/28 00:53:36;;;;;;;46.20;36.78;;;1.20;99.90;;;;;;5083111;28;20401;-73
2021/01/28 00:56:02;;;;;;;44.92;36.25;;;;;;;;;;5082747;28;20470;-72
2021/01/28 00:58:28;;;;;;;47.87;37.50;;;;;;;;;;5080433;28;20382;-73
2021/01/28 01:00:54;;;;;;;43.22;35.92;;;1.40;99.90;;;;;;5080485;28;20385;-73
2021/01/28 01:03:21;;;;;;;46.58;36.45;;;1.50;99.90;;;;;;5081279;28;20386;-73
2021/01/28 01:05:48;;;;;;;46.07;36.67;;;1.20;99.90;;;;;;5078199;28;20389;-71
2021/01/28 01:08:23;;;;;;;50.95;38.72;;;0.90;99.90;;;;;;5084963;28;20860;-71
2021/01/28 01:10:52;;;;;;;44.42;36.20;;;1.20;99.90;;;;;;5073444;28;20420;-72
2021/01/28 01:13:21;;;;;;;45.67;36.30;;;1.00;99.90;;;;;;5083470;28;20467;-73
2021/01/28 01:15:47;;;;;;;46.70;37.15;;;1.20;99.90;;;;;;5084834;28;20425;-72
2021/01/28 01:18:15;;;;;;;43.03;35.50;;;1.00;99.90;;;;;;5082967;28;20410;-72
2021/01/28 01:20:41;;;;;;;42.63;35.67;;;1.10;99.90;;;;;;5084113;28;20514;-72
2021/01/28 01:23:07;;;;;;;43.30;36.33;;;1.20;99.90;;;;;;5085572;28;20388;-72
2021/01/28 01:25:34;;;;;;;46.05;37.38;;;1.30;99.90;;;;;;5082730;28;21600;-73
2021/01/28 01:28:00;;;;;;;38.93;33.80;;;;;;;;;;5084671;28;20467;-72
2021/01/28 01:30:27;;;;;;;49.33;39.00;;;;;;;;;;5088651;28;20412;-71
2021/01/28 01:32:53;;;;;;;51.77;40.57;;;1.10;99.90;;;;;;5079627;28;20471;-71
2021/01/28 01:35:22;;;;;;;53.58;41.15;;;1.00;99.90;;;;;;5085192;28;20463;-73
2021/01/28 01:37:48;;;;;;;47.83;38.72;;;1.10;99.90;;;;;;5084656;28;20463;-73
2021/01/28 01:40:17;;;;;;;46.83;37.83;;;1.60;99.90;;;;;;5084589;28;20844;-72
2021/01/28 01:42:47;;;;;;;48.35;38.72;;;1.00;99.90;;;;;;5083063;28;20421;-72
2021/01/28 01:45:14;;;;;;;55.22;41.35;;;1.00;99.90;;;;;;5084384;28;20386;-71
2021/01/28 01:47:50;;;;;;;53.08;39.90;;;1.10;99.90;;;;;;5081814;28;20429;-72
2021/01/28 01:50:43;;;;;;;53.75;40.88;;;1.70;99.90;;;;;;5084301;28;20423;-72
2021/01/28 01:53:17;;;;;;;53.55;40.58;;;;;;;;;;5054601;28;20414;-73
2021/01/28 01:55:47;;;;;;;50.28;39.45;;;1.10;99.90;;;;;;5072362;28;20372;-73
2021/01/28 01:58:17;;;;;;;49.95;39.42;;;1.10;99.90;;;;;;5072489;28;20391;-72
2021/01/28 02:00:42;;;;;;;48.42;38.55;;;1.00;99.90;;;;;;5072293;28;20384;-72
2021/01/28 02:03:11;;;;;;;44.53;36.07;;;1.40;99.90;;;;;;5072362;28;20388;-72
2021/01/28 02:05:39;;;;;;;42.10;34.92;;;;;;;;;;5072139;28;21138;-72
2021/01/28 02:08:05;;;;;;;47.75;37.70;;;1.80;99.90;;;;;;5072222;28;20719;-73
2021/01/28 02:10:31;;;;;;;47.95;38.20;;;1.70;99.90;;;;;;5072050;28;20396;-73
2021/01/28 02:12:58;;;;;;;48.93;37.87;;;;;;;;;;5072000;28;20410;-73
2021/01/28 02:15:25;;;;;;;49.22;38.05;;;1.10;99.90;;;;;;5071113;28;20723;-73
2021/01/28 02:17:54;;;;;;;55.35;40.22;;;1.10;99.90;;;;;;5085246;28;20378;-73
2021/01/28 02:20:54;;;;;;;49.50;38.53;;;1.10;99.90;;;;;;5092362;28;20374;-73
2021/01/28 02:23:46;;;;;;;54.33;40.27;;;1.20;99.90;;;;;;5082225;28;20382;-73
2021/01/28 02:26:11;;;;;;;56.63;40.95;;;1.10;99.90;;;;;;5047541;28;20398;-72
2021/01/28 02:28:37;;;;;;;49.58;37.65;;;;;;;;;;5071884;28;20877;-72
2021/01/28 02:31:04;;;;;;;51.33;38.75;;;;;;;;;;5069230;28;20753;-73
2021/01/28 02:33:53;;;;;;;51.20;38.72;;;1.90;99.90;;;;;;5071632;28;20386;-72
2021/01/28 02:36:19;;;;;;;60.70;42.03;;;1.00;99.90;;;;;;5071816;28;20372;-73
2021/01/28 02:38:45;;;;;;;54.35;39.88;;;1.10;99.90;;;;;;5071603;28;20379;-71
2021/01/28 02:41:12;;;;;;;68.53;44.13;;;;;;;;;;5071476;28;20485;-72
2021/01/28 02:43:39;;;;;;;66.85;43.50;;;;;;;;;;5071454;28;20539;-71
2021/01/28 02:46:14;;;;;;;66.90;43.65;;;1.10;99.90;;;;;;5071392;28;20375;-72
2021/01/28 02:48:40;;;;;;;64.75;43.10;;;;;;;;;;5071436;28;20379;-71
2021/01/28 02:51:07;;;;;;;69.00;44.00;;;;;;;;;;5071053;28;20511;-71
2021/01/28 02:53:40;;;;;;;73.15;45.75;;;1.20;99.90;;;;;;5071117;28;20877;-72
2021/01/28 02:56:06;;;;;;;78.13;47.85;;;1.30;99.90;;;;;;5071262;28;20383;-72
2021/01/28 02:58:32;;;;;;;88.82;50.42;;;;;;;;;;5071226;28;20388;-73
2021/01/28 03:00:58;;;;;;;84.13;49.20;;;1.10;99.90;;;;;;5070951;28;20750;-73
2021/01/28 03:03:24;;;;;;;82.50;48.05;;;1.30;99.90;;;;;;5071117;28;20387;-73
2021/01/28 03:05:51;;;;;;;76.57;46.30;;;1.80;99.90;;;;;;5071135;28;20428;-73
2021/01/28 03:08:17;;;;;;;80.97;47.77;;;;;;;;;;5071034;28;20865;-73
2021/01/28 03:10:43;;;;;;;88.78;50.67;;;;;;;;;;5070845;28;20411;-72
2021/01/28 03:13:10;;;;;;;100.93;53.95;;;1.50;99.90;;;;;;5070938;28;20426;-73
2021/01/28 03:15:36;;;;;;;85.38;49.78;;;1.40;99.90;;;;;;5070695;28;20423;-72
2021/01/28 03:18:02;;;;;;;86.60;49.78;;;1.40;99.90;;;;;;5070918;28;20438;-72
2021/01/28 03:20:28;;;;;;;74.38;46.85;;;1.40;99.90;;;;;;5070828;28;20402;-72
2021/01/28 03:22:57;;;;;;;95.35;51.60;;;;;;;;;;5070648;28;20462;-72
2021/01/28 03:25:23;;;;;;;82.68;47.92;;;1.30;99.90;;;;;;5070794;28;20422;-73
2021/01/28 03:27:49;;;;;;;72.40;45.42;;;;;;;;;;5070519;28;20384;-73
2021/01/28 03:30:22;;;;;;;85.33;49.53;;;1.40;99.90;;;;;;5070661;28;20966;-73
2021/01/28 03:32:47;;;;;;;67.95;43.50;;;1.30;99.90;;;;;;5083880;28;20713;-73
2021/01/28 03:35:14;;;;;;;66.45;43.05;;;;;;;;;;5090871;28;20400;-72
2021/01/28 03:37:39;;;;;;;75.43;44.90;;;;;;;;;;5090818;28;20890;-73
2021/01/28 03:40:06;;;;;;;78.78;45.83;;;;;;;;;;5090819;28;20413;-74
2021/01/28 03:42:32;;;;;;;77.93;45.60;;;;;;;;;;5090488;28;20381;-74
2021/01/28 03:44:57;;;;;;;71.80;44.13;;;1.10;99.90;;;;;;5081629;28;20380;-72
2021/01/28 03:47:23;;;;;;;80.00;46.53;;;1.80;99.90;;;;;;5070475;28;20395;-72
2021/01/28 03:49:49;;;;;;;69.63;43.13;;;;;;;;;;5070558;28;20378;-72
2021/01/28 03:52:15;;;;;;;68.88;42.88;;;1.30;99.90;;;;;;5070111;28;20768;-74
2021/01/28 03:54:41;;;;;;;86.30;48.27;;;;;;;;;;5070302;28;20457;-74
2021/01/28 03:57:07;;;;;;;85.70;47.33;;;;;;;;;;5070243;28;20439;-73
2021/01/28 03:59:33;;;;;;;84.75;47.85;;;;;;;;;;5070479;28;20376;-72
2021/01/28 04:01:59;;;;;;;87.80;49.25;;;;;;;;;;5070036;28;20742;-73
2021/01/28 04:04:25;;;;;;;95.53;50.15;;;;;;;;;;5070236;28;20379;-72
2021/01/28 04:06:50;;;;;;;94.53;49.70;;;1.20;99.90;;;;;;5070239;28;20911;-72
2021/01/28 04:09:16;;;;;;;98.45;50.33;;;;;;;;;;5070403;28;20462;-73
2021/01/28 04:11:42;;;;;;;105.88;51.90;;;1.10;99.90;;;;;;5069827;28;20403;-73
2021/01/28 04:14:07;;;;;;;103.73;51.43;;;1.10;99.90;;;;;;5070226;28;20388;-73
2021/01/28 04:16:33;;;;;;;110.50;52.63;;;;;;;;;;5070142;28;20765;-73
2021/01/28 04:18:59;;;;;;;106.10;51.20;;;;;;;;;;5070234;28;20762;-73
2021/01/28 04:21:25;;;;;;;132.73;55.10;;;;;;;;;;5069919;28;21105;-73
2021/01/28 04:23:50;;;;;;;117.70;53.22;;;1.70;99.90;;;;;;5061062;28;20890;-73
2021/01/28 04:26:16;;;;;;;130.65;55.30;;;;;;;;;;5081534;28;20378;-73
2021/01/28 04:28:42;;;;;;;125.25;54.67;;;1.20;99.90;;;;;;5081073;28;20380;-73
2021/01/28 04:31:08;;;;;;;118.17;52.27;;;1.40;99.90;;;;;;5070026;28;20455;-73
2021/01/28 04:33:34;;;;;;;140.20;56.23;;;1.20;99.90;;;;;;5090190;28;20374;-73
2021/01/28 04:36:00;;;;;;;101.72;48.05;;;;;;;;;;5090112;28;20382;-74
2021/01/28 04:38:26;;;;;;;142.50;55.67;;;;;;;;;;5090156;28;20453;-74
2021/01/28 04:41:30;;;;;;;146.20;55.60;;;1.30;99.90;;;;;;5093480;28;20382;-73
2021/01/28 04:43:57;;;;;;;143.23;56.55;;;1.30;99.90;;;;;;5036888;28;20398;-73
2021/01/28 04:46:26;;;;;;;154.82;57.80;;;1.40;99.90;;;;;;5057096;28;20437;-73
2021/01/28 04:48:53;;;;;;;181.87;60.37;;;1.30;99.90;;;;;;5089024;28;20460;-73
2021/01/28 04:51:20;;;;;;;160.15;58.95;;;;;;;;;;5085122;28;20837;-72
2021/01/28 04:53:53;;;;;;;182.23;60.55;;;1.20;99.90;;;;;;5073614;28;20393;-74
2021/01/28 04:56:25;;;;;;;219.10;65.60;;;1.00;99.90;;;;;;5073970;28;20471;-73
2021/01/28 04:59:02;;;;;;;206.68;62.72;;;1.50;99.90;;;;;;5076812;28;20393;-72
2021/01/28 05:01:30;;;;;;;190.35;59.55;;;;;;;;;;5093679;28;20389;-72
2021/01/28 05:03:57;;;;;;;219.93;62.80;;;1.30;99.90;;;;;;5093605;28;20389;-73
2021/01/28 05:06:23;;;;;;;237.07;65.22;;;;;;;;;;5093711;28;20385;-73
2021/01/28 05:08:48;;;;;;;273.42;67.70;;;1.30;99.90;;;;;;5093547;28;20936;-73
2021/01/28 05:11:27;;;;;;;146.27;53.25;;;1.30;99.90;;;;;;5092060;28;20421;-73
2021/01/28 05:13:53;;;;;;;451.05;88.82;;;1.50;99.90;;;;;;5093536;28;20736;-75
2021/01/28 05:16:31;;;;;;;316.95;74.90;;;1.50;99.90;;;;;;5093380;28;20472;-74
2021/01/28 05:19:09;;;;;;;237.93;64.88;;;1.30;99.90;;;;;;5061513;28;20896;-75
2021/01/28 05:21:58;;;;;;;275.38;67.35;;;;;;;;;;5089822;28;20403;-74
2021/01/28 05:24:41;;;;;;;380.63;79.25;;;1.30;99.90;;;;;;5079355;28;20391;-73
2021/01/28 05:27:13;;;;;;;168.48;55.05;;;;;;;;;;5073127;28;20717;-74
2021/01/28 05:29:44;;;;;;;238.52;61.65;;;2.00;99.90;;;;;;5072992;28;20401;-74
2021/01/28 05:32:45;;;;;;;302.30;69.57;;;0.80;99.90;;;;;;5081139;28;20402;-74
2021/01/28 05:35:19;;;;;;;438.60;83.03;;;;;;;;;;5070301;28;20466;-73
2021/01/28 05:37:45;;;;;;;200.18;55.70;;;;;;;;;;5093014;28;20401;-74
2021/01/28 05:40:23;;;;;;;264.10;62.10;;;1.50;99.90;;;;;;5093040;28;20386;-73
2021/01/28 05:42:54;;;;;;;208.18;57.63;;;1.20;99.90;;;;;;5092852;28;20401;-72
2021/01/28 05:45:27;;;;;;;354.45;71.75;;;1.40;99.90;;;;;;5092901;28;20905;-73
2021/01/28 05:47:53;;;;;;;321.10;70.40;;;;;;;;;;5092786;28;20382;-73
2021/01/28 05:50:21;;;;;;;271.02;63.03;;;;;;;;;;5092648;28;20378;-74
2021/01/28 05:52:48;;;;;;;517.05;93.18;;;1.70;99.90;;;;;;5092512;28;20371;-74
2021/01/28 05:55:21;;;;;;;624.67;101.35;;;;;;;;;;5092334;28;20469;-74
2021/01/28 05:58:09;;;;;;;357.52;74.30;;;1.80;99.90;;;;;;5092572;28;20445;-73
2021/01/28 06:01:18;;;;;;;310.00;71.80;;;1.90;99.90;;;;;;5092481;28;20398;-73
2021/01/28 06:03:47;;;;;;;207.48;56.00;;;1.10;99.90;;;;;;5052813;28;20393;-73
2021/01/28 06:06:14;;;;;;;367.35;70.28;;;;;;;;;;5072242;28;20384;-73
2021/01/28 06:09:00;;;;;;;261.17;60.40;;;1.50;99.90;;;;;;5072196;28;20449;-72
2021/01/28 06:11:36;;;;;;;314.25;65.40;;;1.20;99.90;;;;;;5071911;28;20477;-73
2021/01/28 06:14:29;;;;;;;485.48;80.78;;;1.50;99.90;;;;;;5059750;28;20383;-72
2021/01/28 06:17:22;;;;;;;297.83;65.43;;;1.70;99.90;;;;;;5090073;28;20410;-72
2021/01/28 06:20:07;;;;;;;363.40;70.50;;;1.30;99.90;;;;;;5092228;28;20500;-72
2021/01/28 06:22:43;;;;;;;321.40;70.25;;;;;;;;;;5092026;28;20861;-72
2021/01/28 06:25:17;;;;;;;289.10;65.50;;;1.50;99.90;;;;;;5071975;28;20885;-73
2021/01/28 06:28:10;;;;;;;365.85;79.22;;;1.30;99.90;;;;;;5071861;28;20456;-72
2021/01/28 06:30:55;;;;;;;369.55;75.30;;;;;;;;;;5068866;28;20461;-72
2021/01/28 06:33:39;;;;;;;615.53;103.17;;;1.50;99.90;;;;;;5059098;28;20892;-72
2021/01/28 06:36:08;;;;;;;393.23;93.18;;;1.70;99.90;;;;;;5071746;28;20470;-72
2021/01/28 06:38:57;;;;;;;547.87;93.80;;;1.50;99.90;;;;;;5071705;28;20518;-72
2021/01/28 06:41:29;;;;;;;488.27;84.83;;;2.20;99.90;;;;;;5071323;28;20516;-73
2021/01/28 06:44:00;;;;;;;508.60;87.75;;;1.50;99.90;;;;;;5071378;28;20411;-72
2021/01/28 06:46:49;;;;;;;656.42;104.55;;;1.50;99.90;;;;;;5071466;28;20395;-72
2021/01/28 06:49:28;;;;;;;665.15;112.68;;;;;;;;;;5071365;28;20436;-72
2021/01/28 06:52:18;;;;;;;445.50;85.22;;;1.90;99.90;;;;;;5071049;28;20443;-71
2021/01/28 06:55:05;;;;;;;583.38;99.43;;;1.90;99.90;;;;;;5071241;28;20379;-72
2021/01/28 06:58:14;;;;;;;615.15;101.45;;;1.80;99.90;;;;;;5071302;28;20387;-71
2021/01/28 07:01:06;;;;;;;508.83;95.30;;;2.00;99.90;;;;;;5071183;28;20573;-74
2021/01/28 07:03:47;;;;;;;498.05;95.00;;;1.40;99.90;;;;;;5070549;28;20383;-73
2021/01/28 07:06:19;;;;;;;357.88;77.97;;;;;;;;;;5071163;28;20785;-73
2021/01/28 07:08:56;;;;;;;306.65;72.70;;;2.10;99.90;;;;;;5071048;28;20386;-71
2021/01/28 07:11:29;;;;;;;396.15;85.13;;;1.50;99.90;;;;;;5070774;28;20439;-72
2021/01/28 07:13:55;;;;;;;419.75;84.60;;;2.10;99.90;;;;;;5071036;28;20452;-72
2021/01/28 07:16:55;;;;;;;310.10;79.85;;;1.60;99.90;;;;;;5070757;28;20413;-72
2021/01/28 07:19:28;;;;;;;361.52;76.15;;;1.70;99.90;;;;;;5070682;28;20978;-71
2021/01/28 07:21:55;;;;;;;239.50;60.50;;;1.30;99.90;;;;;;5070597;28;20413;-72
2021/01/28 07:24:24;;;;;;;341.95;74.43;;;;;;;;;;5070735;28;20387;-72
2021/01/28 07:26:50;;;;;;;232.38;62.20;;;;;;;;;;5070790;28;20378;-72
2021/01/28 07:29:31;;;;;;;184.35;54.53;;;1.50;99.90;;;;;;5070714;28;20877;-73
2021/01/28 07:31:59;;;;;;;205.98;61.75;;;1.40;99.90;;;;;;5076900;28;20409;-72
2021/01/28 07:34:24;;;;;;;214.48;63.55;;;2.90;99.90;;;;;;5090261;28;20902;-74
2021/01/28 07:36:52;;;;;;;179.87;56.10;;;1.60;99.90;;;;;;5090681;28;20390;-73
2021/01/28 07:39:30;;;;;;;173.68;56.08;;;;;;;;;;5090603;28;20377;-72
2021/01/28 07:42:01;;;;;;;176.30;57.97;;;1.90;99.90;;;;;;5090346;28;20405;-72
2021/01/28 07:44:38;;;;;;;134.90;51.05;;;1.80;99.90;;;;;;5090368;28;20382;-73
2021/01/28 07:47:05;;;;;;;133.02;50.92;;;;;;;;;;5090498;28;20386;-72
2021/01/28 07:49:33;;;;;;;130.75;50.28;;;1.50;99.90;;;;;;5090492;28;20374;-73
2021/01/28 07:51:59;;;;;;;110.20;46.92;;;;;;;;;;5090225;28;20398;-73
2021/01/28 07:54:25;;;;;;;106.90;45.83;;;;;;;;;;5090348;28;20370;-72
2021/01/28 07:56:57;;;;;;;116.68;47.22;;;1.90;99.90;;;;;;5090296;28;20868;-73
2021/01/28 07:59:32;;;;;;;121.00;49.40;;;;;;;;;;5090331;28;20378;-72
2021/01/28 08:02:23;;;;;;;91.40;44.17;;;1.90;99.90;;;;;;5090022;28;20370;-72
2021/01/28 08:05:19;;;;;;;96.15;45.17;;;;;;;;;;5089069;28;20382;-72
2021/01/28 08:08:01;;;;;;;95.65;44.60;;;1.70;99.90;;;;;;5081448;28;20901;-72
2021/01/28 08:10:34;;;;;;;107.00;48.97;;;2.10;99.90;;;;;;5090056;28;20895;-71
2021/01/28 08:13:08;;;;;;;91.18;44.95;;;;;;;;;;5090147;28;20748;-72
2021/01/28 08:15:41;;;;;;;84.63;41.45;;;;;;;;;;5093152;28;20394;-72
2021/01/28 08:18:16;;;;;;;79.93;42.37;;;;;;;;;;5094231;28;20492;-72
2021/01/28 08:20:42;;;;;;;86.70;46.03;;;;;;;;;;5094159;28;20370;-73
2021/01/28 08:23:15;;;;;;;92.00;44.22;;;2.50;99.90;;;;;;5091033;28;20892;-73
2021/01/28 08:25:56;;;;;;;89.25;43.80;;;2.50;99.90;;;;;;5073926;28;20470;-72
2021/01/28 08:28:24;;;;;;;77.75;40.80;;;;;;;;;;5073832;28;20386;-72
2021/01/28 08:30:58;;;;;;;76.85;40.47;;;2.70;99.90;;;;;;5071847;28;20480;-72
2021/01/28 08:33:25;;;;;;;72.57;39.33;;;2.20;99.90;;;;;;5068767;28;25171;-72
2021/01/28 08:35:54;;;;;;;73.97;38.83;;;2.50;99.90;;;;;;5094071;28;20386;-71
2021/01/28 08:38:27;;;;;;;66.10;36.53;;;2.30;99.90;;;;;;5093833;28;20398;-71
2021/01/28 08:41:20;;;;;;;64.60;35.28;;;2.80;99.90;;;;;;5093704;28;20390;-72
2021/01/28 08:43:46;;;;;;;57.07;33.60;;;2.20;99.90;;;;;;5093536;28;25104;-72
2021/01/28 08:46:14;;;;;;;53.00;31.05;;;;;;;;;;5093737;28;20393;-72
2021/01/28 08:48:40;;;;;;;54.38;32.53;;;;;;;;;;5093692;28;20406;-72
2021/01/28 08:51:16;;;;;;;52.83;32.35;;;2.40;99.90;;;;;;5093324;28;20402;-72
2021/01/28 08:53:46;;;;;;;55.97;33.55;;;1.90;99.90;;;;;;5093610;28;20399;-72
2021/01/28 08:56:19;;;;;;;54.00;33.00;;;;;;;;;;5093706;28;20496;-72
2021/01/28 08:58:45;;;;;;;51.63;32.40;;;2.20;99.90;;;;;;5093508;28;20381;-72
2021/01/28 09:01:13;;;;;;;49.67;32.72;;;;;;;;;;5093283;28;20406;-72
2021/01/28 09:03:47;;;;;;;46.92;31.63;;;;;;;;;;5093525;28;20368;-72
2021/01/28 09:06:13;;;;;;;48.70;31.03;;;1.80;99.90;;;;;;5093487;28;20366;-72
2021/01/28 09:08:40;;;;;;;49.60;31.83;;;;;;;;;;5093328;28;20752;-71
2021/01/28 09:11:15;;;;;;;54.22;33.75;;;;;;;;;;5093120;28;20497;-71
2021/01/28 09:14:00;;;;;;;49.17;31.20;;;2.30;99.90;;;;;;5093064;28;20395;-72
2021/01/28 09:16:25;;;;;;;51.28;31.95;;;2.20;99.90;;;;;;5093070;28;20419;-71
2021/01/28 09:18:53;;;;;;;53.87;32.90;;;3.00;99.90;;;;;;5093284;28;20489;-72
2021/01/28 09:21:22;;;;;;;56.28;33.58;;;2.70;99.90;;;;;;5092865;28;20513;-72
2021/01/28 09:23:53;;;;;;;55.92;33.03;;;;;;;;;;5084428;28;20889;-71
2021/01/28 09:26:23;;;;;;;53.45;32.33;;;2.80;99.90;;;;;;5072051;28;20388;-72
2021/01/28 09:28:49;;;;;;;56.13;34.03;;;2.70;99.90;;;;;;5072899;28;20384;-71
2021/01/28 09:31:20;;;;;;;52.80;32.97;;;;;;;;;;5072986;28;20402;-71
2021/01/28 09:33:46;;;;;;;51.17;32.85;;;1.90;99.90;;;;;;5092844;28;20385;-71
2021/01/28 09:36:16;;;;;;;49.50;32.23;;;;;;;;;;5092941;28;20374;-73
2021/01/28 09:38:56;;;;;;;48.03;30.73;;;;;;;;;;5092708;28;20362;-71
2021/01/28 09:41:28;;;;;;;40.17;28.50;;;2.80;99.90;;;;;;5092469;28;20403;-71
2021/01/28 09:43:53;;;;;;;40.67;27.23;;;2.00;99.90;;;;;;5092525;28;25172;-73
2021/01/28 09:46:19;;;;;;;40.27;26.50;;;2.00;99.90;;;;;;5092776;28;20372;-71
2021/01/28 09:48:45;;;;;;;45.10;29.60;;;2.80;99.90;;;;;;5092739;28;20389;-71
2021/01/28 09:51:14;;;;;;;50.38;32.42;;;2.80;99.90;;;;;;5092277;28;20413;-71
2021/01/28 09:53:57;;;;;;;52.15;32.90;;;2.20;99.90;;;;;;5092452;28;20460;-72
2021/01/28 09:56:22;;;;;;;46.80;29.83;;;2.30;99.90;;;;;;5092599;28;20374;-71
2021/01/28 09:58:48;;;;;;;43.40;28.83;;;2.00;99.90;;;;;;5092490;28;20556;-71
2021/01/28 10:01:14;;;;;;;47.70;29.92;;;;;;;;;;5092348;28;20389;-71
2021/01/28 10:03:39;;;;;;;43.38;28.02;;;2.00;99.90;;;;;;5092126;28;20385;-71
2021/01/28 10:06:05;;;;;;;47.43;28.70;;;2.40;99.90;;;;;;5092428;28;20940;-71
2021/01/28 10:08:30;;;;;;;46.30;29.03;;;2.80;99.90;;;;;;5092255;28;20887;-71
2021/01/28 10:10:56;;;;;;;50.83;29.90;;;;;;;;;;5092028;28;20961;-71
2021/01/28 10:13:22;;;;;;;45.80;28.38;;;2.80;99.90;;;;;;5092161;28;20449;-71
2021/01/28 10:15:48;;;;;;;45.03;28.17;;;3.20;99.90;;;;;;5092179;28;20424;-70
2021/01/28 10:18:13;;;;;;;46.42;27.70;;;2.40;99.90;;;;;;5092148;28;20385;-71
2021/01/28 10:20:41;;;;;;;43.38;28.23;;;2.80;99.90;;;;;;5091939;28;20386;-72
2021/01/28 10:23:08;;;;;;;47.35;29.30;;;2.70;99.90;;;;;;5088999;28;20395;-72
2021/01/28 10:25:33;;;;;;;48.20;30.27;;;2.10;99.90;;;;;;5071596;28;20541;-70
2021/01/28 10:27:59;;;;;;;47.00;30.30;;;2.50;99.90;;;;;;5071616;28;20387;-71
2021/01/28 10:30:25;;;;;;;47.83;31.02;;;2.00;99.90;;;;;;5071599;28;20470;-72
2021/01/28 10:32:52;;;;;;;50.25;32.05;;;2.80;99.90;;;;;;5085485;28;20390;-71
2021/01/28 10:35:22;;;;;;;47.85;31.27;;;2.80;99.90;;;;;;5091977;28;20424;-70
2021/01/28 10:37:48;;;;;;;49.35;30.48;;;2.10;99.90;;;;;;5090883;28;20395;-71
2021/01/28 10:40:14;;;;;;;56.60;33.38;;;2.40;99.90;;;;;;5091872;28;20713;-71
2021/01/28 10:42:42;;;;;;;58.88;35.00;;;3.30;99.90;;;;;;5091234;28;20378;-71
2021/01/28 10:45:14;;;;;;;54.75;33.40;;;2.80;99.90;;;;;;5091486;28;20414;-70
2021/01/28 10:47:40;;;;;;;53.58;33.72;;;3.00;99.90;;;;;;5082266;28;20405;-71
2021/01/28 10:50:07;;;;;;;52.63;31.85;;;;;;;;;;5083037;28;20385;-71
2021/01/28 10:52:32;;;;;;;52.40;31.92;;;2.20;99.90;;;;;;5079552;28;20414;-71
2021/01/28 10:54:58;;;;;;;54.45;31.63;;;2.00;99.90;;;;;;5079952;28;20390;-71
2021/01/28 10:57:24;;;;;;;51.58;31.25;;;;;;;;;;5081811;28;20391;-71
2021/01/28 10:59:50;;;;;;;52.35;32.42;;;;;;;;;;5078994;28;20913;-72
2021/01/28 11:02:16;;;;;;;44.58;28.08;;;;;;;;;;5081284;28;20433;-72
2021/01/28 11:04:42;;;;;;;44.28;27.98;;;;;;;;;;5078151;28;20955;-72
2021/01/28 11:07:08;;;;;;;41.45;27.00;;;2.20;99.90;;;;;;5081355;28;20463;-71
2021/01/28 11:09:34;;;;;;;46.03;28.17;;;;;;;;;;5086535;28;20396;-70
2021/01/28 11:12:00;;;;;;;41.37;27.17;;;;;;;;;;5078844;28;20490;-71
2021/01/28 11:14:26;;;;;;;35.67;24.52;;;3.00;99.90;;;;;;5085184;28;20834;-72
2021/01/28 11:16:51;;;;;;;34.43;23.03;;;2.90;99.90;;;;;;5083131;28;20477;-71
2021/01/28 11:19:17;;;;;;;31.93;21.73;;;3.20;99.90;;;;;;5082428;28;20410;-71
2021/01/28 11:21:42;;;;;;;34.27;22.57;;;3.20;99.90;;;;;;5080847;28;20386;-72
2021/01/28 11:24:08;;;;;;;34.75;22.50;;;3.20;99.90;;;;;;5082319;28;20425;-73
2021/01/28 11:26:34;;;;;;;32.90;22.48;;;3.20;99.90;;;;;;5080272;28;20388;-73
2021/01/28 11:29:02;;;;;;;27.80;19.30;;;2.90;99.90;;;;;;5081012;28;20397;-71
2021/01/28 11:31:27;;;;;;;28.50;18.90;;;2.80;99.90;;;;;;5079064;28;20408;-71
2021/01/28 11:33:53;;;;;;;29.37;19.53;;;2.60;99.90;;;;;;5079066;28;20389;-71
2021/01/28 11:36:18;;;;;;;28.27;19.27;;;3.60;99.90;;;;;;5080832;28;20894;-72
2021/01/28 11:38:44;;;;;;;23.63;16.93;;;3.10;99.90;;;;;;5082099;28;20461;-71
2021/01/28 11:41:09;;;;;;;23.67;17.07;;;3.30;99.90;;;;;;5080635;28;20418;-71
2021/01/28 11:43:35;;;;;;;27.50;18.63;;;2.30;99.90;;;;;;5086466;28;20390;-72
2021/01/28 11:46:01;;;;;;;26.23;17.33;;;;;;;;;;5078464;28;20387;-73
2021/01/28 11:48:27;;;;;;;23.13;15.98;;;3.20;99.90;;;;;;5084943;28;20410;-72
2021/01/28 11:50:52;;;;;;;22.93;16.40;;;2.60;99.90;;;;;;5078337;28;20404;-71
2021/01/28 11:53:18;;;;;;;23.23;16.53;;;2.60;99.90;;;;;;5083584;28;20499;-71
2021/01/28 11:55:43;;;;;;;22.00;15.37;;;2.50;99.90;;;;;;5080981;28;20421;-72
2021/01/28 11:58:09;;;;;;;19.30;14.20;;;3.00;99.90;;;;;;5082078;28;20744;-72
2021/01/28 12:00:35;;;;;;;22.45;14.90;;;2.40;99.90;;;;;;5079810;28;20754;-71
2021/01/28 12:03:00;;;;;;;18.25;14.27;;;2.80;99.90;;;;;;5080229;28;20405;-72
2021/01/28 12:05:27;;;;;;;19.38;14.43;;;;;;;;;;5076550;28;20387;-72
2021/01/28 12:07:54;;;;;;;19.20;14.25;;;3.00;99.90;;;;;;5081961;28;20381;-72
2021/01/28 12:10:21;;;;;;;17.70;13.85;;;2.60;99.90;;;;;;5080723;28;20384;-72
2021/01/28 12:12:48;;;;;;;17.55;13.02;;;;;;;;;;5081641;28;20381;-71
2021/01/28 12:15:15;;;;;;;16.90;12.30;;;2.80;99.90;;;;;;5080625;28;20877;-71
2021/01/28 12:17:40;;;;;;;16.97;13.07;;;3.40;99.90;;;;;;5081383;28;20390;-71
2021/01/28 12:20:07;;;;;;;20.43;15.30;;;3.30;99.90;;;;;;5080617;28;20455;-71
2021/01/28 12:22:33;;;;;;;19.48;13.60;;;3.30;99.90;;;;;;5085194;28;20378;-71
2021/01/28 12:24:59;;;;;;;17.60;14.20;;;3.60;99.90;;;;;;5078474;28;20488;-71
2021/01/28 12:27:24;;;;;;;17.43;13.70;;;2.70;99.90;;;;;;5083554;28;20848;-71
2021/01/28 12:29:50;;;;;;;15.73;12.85;;;3.20;99.90;;;;;;5081381;28;20736;-72
2021/01/28 12:32:16;;;;;;;18.05;13.88;;;;;;;;;;5081370;28;20463;-70
2021/01/28 12:34:41;;;;;;;18.95;14.35;;;2.60;99.90;;;;;;5076329;28;20401;-70
2021/01/28 12:37:07;;;;;;;22.27;16.33;;;3.00;99.90;;;;;;5081526;28;20373;-71
2021/01/28 12:39:34;;;;;;;15.53;12.60;;;3.20;99.90;;;;;;5081490;28;20380;-71
2021/01/28 12:42:00;;;;;;;15.60;12.50;;;;;;;;;;5081458;28;20470;-71
2021/01/28 12:44:26;;;;;;;17.10;14.17;;;2.90;99.90;;;;;;5080161;28;21096;-70
2021/01/28 12:46:52;;;;;;;17.40;13.63;;;3.40;99.90;;;;;;5081530;28;20424;-71
2021/01/28 12:49:17;;;;;;;14.02;12.32;;;3.40;99.90;;;;;;5079285;28;20411;-71
2021/01/28 12:51:44;;;;;;;15.23;12.60;;;2.30;99.90;;;;;;5085379;28;20901;-71
2021/01/28 12:54:09;;;;;;;15.77;12.20;;;2.70;99.90;;;;;;5077881;28;20426;-71
2021/01/28 12:56:35;;;;;;;16.08;12.30;;;3.40;99.90;;;;;;5083344;28;20422;-71
2021/01/28 12:59:01;;;;;;;13.97;11.67;;;;;;;;;;5078004;28;20462;-72
2021/01/28 13:01:27;;;;;;;16.57;13.20;;;;;;;;;;5086256;28;20386;-72
2021/01/28 13:03:53;;;;;;;16.88;13.88;;;3.50;99.90;;;;;;5082965;28;20466;-72
2021/01/28 13:06:19;;;;;;;16.50;13.40;;;3.40;99.90;;;;;;5085198;28;20381;-71
2021/01/28 13:08:45;;;;;;;18.20;13.95;;;;;;;;;;5081792;28;20395;-72
2021/01/28 13:11:11;;;;;;;15.73;13.00;;;;;;;;;;5084762;28;20402;-73
2021/01/28 13:13:38;;;;;;;16.08;12.55;;;3.20;99.90;;;;;;5081993;28;20384;-72
2021/01/28 13:16:04;;;;;;;17.17;12.90;;;3.20;99.90;;;;;;5084906;28;20394;-72